sensor_id;sensor_type;location;lat;lon;timestamp;temperature;humidity
30288;DHT22;17103;48.316;11.558;2023-11-21T00:00:44;11.60;48.00
30288;DHT22;17103;48.316;11.558;2023-11-21T00:03:11;11.60;48.00
30288;DHT22;17103;48.316;11.558;2023-11-21T00:05:40;11.60;48.00
30288;DHT22;17103;48.316;11.558;2023-11-21T00:08:06;11.60;47.90
30288;DHT22;17103;48.316;11.558;2023-11-21T00:10:32;11.60;48.30
30288;DHT22;17103;48.316;11.558;2023-11-21T00:12:58;11.60;49.10
30288;DHT22;17103;48.316;11.558;2023-11-21T00:15:23;11.60;48.40
30288;DHT22;17103;48.316;11.558;2023-11-21T00:17:49;11.60;48.50
30288;DHT22;17103;48.316;11.558;2023-11-21T00:20:14;11.60;48.40
30288;DHT22;17103;48.316;11.558;2023-11-21T00:22:41;11.60;47.60
30288;DHT22;17103;48.316;11.558;2023-11-21T00:25:08;11.60;47.90
30288;DHT22;17103;48.316;11.558;2023-11-21T00:27:34;11.70;47.40
30288;DHT22;17103;48.316;11.558;2023-11-21T00:30:00;11.70;47.10
30288;DHT22;17103;48.316;11.558;2023-11-21T00:32:27;11.70;48.10
30288;DHT22;17103;48.316;11.558;2023-11-21T00:34:52;11.70;48.60
30288;DHT22;17103;48.316;11.558;2023-11-21T00:37:19;11.70;48.60
30288;DHT22;17103;48.316;11.558;2023-11-21T00:39:45;11.60;49.00
30288;DHT22;17103;48.316;11.558;2023-11-21T00:42:11;11.60;49.10
30288;DHT22;17103;48.316;11.558;2023-11-21T00:44:37;11.70;48.40
30288;DHT22;17103;48.316;11.558;2023-11-21T00:47:03;11.70;48.90
30288;DHT22;17103;48.316;11.558;2023-11-21T00:49:30;11.70;48.20
30288;DHT22;17103;48.316;11.558;2023-11-21T00:51:55;11.70;48.80
30288;DHT22;17103;48.316;11.558;2023-11-21T00:54:21;12.10;48.80
30288;DHT22;17103;48.316;11.558;2023-11-21T00:56:46;11.80;49.10
30288;DHT22;17103;48.316;11.558;2023-11-21T00:59:15;11.80;48.80
30288;DHT22;17103;48.316;11.558;2023-11-21T01:01:40;11.80;49.00
30288;DHT22;17103;48.316;11.558;2023-11-21T01:04:06;11.80;49.00
30288;DHT22;17103;48.316;11.558;2023-11-21T01:06:34;11.80;49.20
30288;DHT22;17103;48.316;11.558;2023-11-21T01:09:00;11.80;49.10
30288;DHT22;17103;48.316;11.558;2023-11-21T01:11:25;11.80;49.40
30288;DHT22;17103;48.316;11.558;2023-11-21T01:13:51;11.70;49.30
30288;DHT22;17103;48.316;11.558;2023-11-21T01:16:17;11.70;49.30
30288;DHT22;17103;48.316;11.558;2023-11-21T01:18:43;11.70;49.40
30288;DHT22;17103;48.316;11.558;2023-11-21T01:21:08;11.60;49.50
30288;DHT22;17103;48.316;11.558;2023-11-21T01:23:34;11.60;49.50
30288;DHT22;17103;48.316;11.558;2023-11-21T01:26:00;11.60;49.60
30288;DHT22;17103;48.316;11.558;2023-11-21T01:28:25;11.60;49.50
30288;DHT22;17103;48.316;11.558;2023-11-21T01:30:51;11.60;49.60
30288;DHT22;17103;48.316;11.558;2023-11-21T01:33:18;11.60;49.50
30288;DHT22;17103;48.316;11.558;2023-11-21T01:35:43;11.60;50.00
30288;DHT22;17103;48.316;11.558;2023-11-21T01:38:11;11.60;50.10
30288;DHT22;17103;48.316;11.558;2023-11-21T01:40:37;11.60;49.50
30288;DHT22;17103;48.316;11.558;2023-11-21T01:43:03;11.60;49.90
30288;DHT22;17103;48.316;11.558;2023-11-21T01:45:29;11.60;49.90
30288;DHT22;17103;48.316;11.558;2023-11-21T01:47:56;11.60;49.80
30288;DHT22;17103;48.316;11.558;2023-11-21T01:50:22;11.60;49.80
30288;DHT22;17103;48.316;11.558;2023-11-21T01:52:48;11.70;50.10
30288;DHT22;17103;48.316;11.558;2023-11-21T01:55:16;11.70;49.50
30288;DHT22;17103;48.316;11.558;2023-11-21T01:57:44;11.70;49.60
30288;DHT22;17103;48.316;11.558;2023-11-21T02:00:10;11.80;49.70
30288;DHT22;17103;48.316;11.558;2023-11-21T02:02:42;11.90;50.00
30288;DHT22;17103;48.316;11.558;2023-11-21T02:05:07;11.90;49.70
30288;DHT22;17103;48.316;11.558;2023-11-21T02:07:34;11.90;50.30
30288;DHT22;17103;48.316;11.558;2023-11-21T02:10:00;11.90;50.20
30288;DHT22;17103;48.316;11.558;2023-11-21T02:12:27;11.90;50.10
30288;DHT22;17103;48.316;11.558;2023-11-21T02:14:53;11.90;50.10
30288;DHT22;17103;48.316;11.558;2023-11-21T02:17:18;11.80;50.20
30288;DHT22;17103;48.316;11.558;2023-11-21T02:19:44;11.80;50.60
30288;DHT22;17103;48.316;11.558;2023-11-21T02:22:10;11.70;50.30
30288;DHT22;17103;48.316;11.558;2023-11-21T02:24:37;11.70;50.00
30288;DHT22;17103;48.316;11.558;2023-11-21T02:27:02;11.70;50.30
30288;DHT22;17103;48.316;11.558;2023-11-21T02:29:29;11.60;50.20
30288;DHT22;17103;48.316;11.558;2023-11-21T02:31:55;11.70;49.70
30288;DHT22;17103;48.316;11.558;2023-11-21T02:34:21;11.70;49.40
30288;DHT22;17103;48.316;11.558;2023-11-21T02:36:48;11.70;50.10
30288;DHT22;17103;48.316;11.558;2023-11-21T02:39:16;11.60;50.40
30288;DHT22;17103;48.316;11.558;2023-11-21T02:41:45;11.60;49.90
30288;DHT22;17103;48.316;11.558;2023-11-21T02:44:10;11.60;49.90
30288;DHT22;17103;48.316;11.558;2023-11-21T02:46:36;11.60;50.10
30288;DHT22;17103;48.316;11.558;2023-11-21T02:49:05;11.60;50.00
30288;DHT22;17103;48.316;11.558;2023-11-21T02:51:32;11.60;50.20
30288;DHT22;17103;48.316;11.558;2023-11-21T02:54:00;11.60;50.40
30288;DHT22;17103;48.316;11.558;2023-11-21T02:56:28;11.60;50.60
30288;DHT22;17103;48.316;11.558;2023-11-21T02:58:56;11.60;50.30
30288;DHT22;17103;48.316;11.558;2023-11-21T03:01:24;11.60;50.60
30288;DHT22;17103;48.316;11.558;2023-11-21T03:03:49;11.60;50.10
30288;DHT22;17103;48.316;11.558;2023-11-21T03:06:20;11.60;50.40
30288;DHT22;17103;48.316;11.558;2023-11-21T03:08:46;11.60;50.10
30288;DHT22;17103;48.316;11.558;2023-11-21T03:11:12;11.70;49.80
30288;DHT22;17103;48.316;11.558;2023-11-21T03:13:40;11.70;50.20
30288;DHT22;17103;48.316;11.558;2023-11-21T03:16:12;11.70;50.70
30288;DHT22;17103;48.316;11.558;2023-11-21T03:18:38;11.70;50.90
30288;DHT22;17103;48.316;11.558;2023-11-21T03:21:08;11.80;50.80
30288;DHT22;17103;48.316;11.558;2023-11-21T03:23:34;11.80;50.70
30288;DHT22;17103;48.316;11.558;2023-11-21T03:26:01;11.80;51.10
30288;DHT22;17103;48.316;11.558;2023-11-21T03:28:26;11.80;51.20
30288;DHT22;17103;48.316;11.558;2023-11-21T03:30:53;11.80;50.90
30288;DHT22;17103;48.316;11.558;2023-11-21T03:33:18;11.90;50.90
30288;DHT22;17103;48.316;11.558;2023-11-21T03:35:44;11.80;51.10
30288;DHT22;17103;48.316;11.558;2023-11-21T03:38:11;11.90;50.80
30288;DHT22;17103;48.316;11.558;2023-11-21T03:40:38;11.90;50.70
30288;DHT22;17103;48.316;11.558;2023-11-21T03:43:05;11.90;50.80
30288;DHT22;17103;48.316;11.558;2023-11-21T03:45:30;11.90;50.70
30288;DHT22;17103;48.316;11.558;2023-11-21T03:47:56;12.00;51.00
30288;DHT22;17103;48.316;11.558;2023-11-21T03:50:21;12.00;51.00
30288;DHT22;17103;48.316;11.558;2023-11-21T03:52:47;12.00;50.80
30288;DHT22;17103;48.316;11.558;2023-11-21T03:55:13;12.00;50.90
30288;DHT22;17103;48.316;11.558;2023-11-21T03:57:38;12.00;50.80
30288;DHT22;17103;48.316;11.558;2023-11-21T04:00:04;12.00;50.80
30288;DHT22;17103;48.316;11.558;2023-11-21T04:02:30;12.00;50.90
30288;DHT22;17103;48.316;11.558;2023-11-21T04:04:57;12.10;50.70
30288;DHT22;17103;48.316;11.558;2023-11-21T04:07:22;12.10;50.60
30288;DHT22;17103;48.316;11.558;2023-11-21T04:09:48;12.10;50.80
30288;DHT22;17103;48.316;11.558;2023-11-21T04:12:14;12.10;50.90
30288;DHT22;17103;48.316;11.558;2023-11-21T04:14:40;12.10;51.10
30288;DHT22;17103;48.316;11.558;2023-11-21T04:17:06;12.10;50.50
30288;DHT22;17103;48.316;11.558;2023-11-21T04:19:31;12.20;50.60
30288;DHT22;17103;48.316;11.558;2023-11-21T04:21:59;12.20;50.80
30288;DHT22;17103;48.316;11.558;2023-11-21T04:24:25;12.20;50.80
30288;DHT22;17103;48.316;11.558;2023-11-21T04:26:51;12.30;50.80
30288;DHT22;17103;48.316;11.558;2023-11-21T04:29:17;12.30;50.50
30288;DHT22;17103;48.316;11.558;2023-11-21T04:31:43;12.30;50.40
30288;DHT22;17103;48.316;11.558;2023-11-21T04:34:08;12.30;50.30
30288;DHT22;17103;48.316;11.558;2023-11-21T04:36:34;12.20;50.10
30288;DHT22;17103;48.316;11.558;2023-11-21T04:39:02;12.20;50.20
30288;DHT22;17103;48.316;11.558;2023-11-21T04:41:28;12.20;50.00
30288;DHT22;17103;48.316;11.558;2023-11-21T04:43:54;12.20;50.10
30288;DHT22;17103;48.316;11.558;2023-11-21T04:46:19;12.20;50.20
30288;DHT22;17103;48.316;11.558;2023-11-21T04:48:45;12.20;50.20
30288;DHT22;17103;48.316;11.558;2023-11-21T04:51:10;12.20;50.20
30288;DHT22;17103;48.316;11.558;2023-11-21T04:53:38;12.20;49.90
30288;DHT22;17103;48.316;11.558;2023-11-21T04:56:05;12.10;50.10
30288;DHT22;17103;48.316;11.558;2023-11-21T04:58:31;12.10;50.00
30288;DHT22;17103;48.316;11.558;2023-11-21T05:00:57;12.10;49.90
30288;DHT22;17103;48.316;11.558;2023-11-21T05:03:22;12.10;49.90
30288;DHT22;17103;48.316;11.558;2023-11-21T05:05:49;12.10;49.90
30288;DHT22;17103;48.316;11.558;2023-11-21T05:08:14;12.10;49.90
30288;DHT22;17103;48.316;11.558;2023-11-21T05:10:40;12.10;49.90
30288;DHT22;17103;48.316;11.558;2023-11-21T05:13:06;12.10;49.80
30288;DHT22;17103;48.316;11.558;2023-11-21T05:15:36;12.00;49.80
30288;DHT22;17103;48.316;11.558;2023-11-21T05:18:01;12.00;49.50
30288;DHT22;17103;48.316;11.558;2023-11-21T05:20:27;12.00;49.70
30288;DHT22;17103;48.316;11.558;2023-11-21T05:22:54;11.90;49.80
30288;DHT22;17103;48.316;11.558;2023-11-21T05:25:19;11.90;49.90
30288;DHT22;17103;48.316;11.558;2023-11-21T05:27:45;11.90;49.60
30288;DHT22;17103;48.316;11.558;2023-11-21T05:30:11;11.80;49.50
30288;DHT22;17103;48.316;11.558;2023-11-21T05:32:37;11.80;49.50
30288;DHT22;17103;48.316;11.558;2023-11-21T05:35:03;11.80;49.60
30288;DHT22;17103;48.316;11.558;2023-11-21T05:37:28;11.80;49.80
30288;DHT22;17103;48.316;11.558;2023-11-21T05:39:55;11.80;50.00
30288;DHT22;17103;48.316;11.558;2023-11-21T05:42:23;11.80;50.00
30288;DHT22;17103;48.316;11.558;2023-11-21T05:44:49;11.80;49.90
30288;DHT22;17103;48.316;11.558;2023-11-21T05:47:14;11.80;50.00
30288;DHT22;17103;48.316;11.558;2023-11-21T05:49:42;11.80;49.90
30288;DHT22;17103;48.316;11.558;2023-11-21T05:52:07;11.80;49.60
30288;DHT22;17103;48.316;11.558;2023-11-21T05:54:34;11.80;49.60
30288;DHT22;17103;48.316;11.558;2023-11-21T05:57:00;11.80;49.60
30288;DHT22;17103;48.316;11.558;2023-11-21T05:59:26;11.80;49.80
30288;DHT22;17103;48.316;11.558;2023-11-21T06:01:51;11.80;49.80
30288;DHT22;17103;48.316;11.558;2023-11-21T06:04:17;11.80;49.70
30288;DHT22;17103;48.316;11.558;2023-11-21T06:06:43;11.20;49.40
30288;DHT22;17103;48.316;11.558;2023-11-21T06:09:09;11.80;49.60
30288;DHT22;17103;48.316;11.558;2023-11-21T06:11:35;11.70;49.50
30288;DHT22;17103;48.316;11.558;2023-11-21T06:14:01;11.80;49.40
30288;DHT22;17103;48.316;11.558;2023-11-21T06:16:26;11.80;49.40
30288;DHT22;17103;48.316;11.558;2023-11-21T06:18:53;11.80;49.30
30288;DHT22;17103;48.316;11.558;2023-11-21T06:21:18;11.80;49.30
30288;DHT22;17103;48.316;11.558;2023-11-21T06:23:44;11.70;49.50
30288;DHT22;17103;48.316;11.558;2023-11-21T06:26:10;11.70;49.20
30288;DHT22;17103;48.316;11.558;2023-11-21T06:28:35;11.70;49.40
30288;DHT22;17103;48.316;11.558;2023-11-21T06:31:04;11.70;49.40
30288;DHT22;17103;48.316;11.558;2023-11-21T06:33:33;11.60;49.50
30288;DHT22;17103;48.316;11.558;2023-11-21T06:35:59;11.60;49.50
30288;DHT22;17103;48.316;11.558;2023-11-21T06:38:25;11.60;49.30
30288;DHT22;17103;48.316;11.558;2023-11-21T06:40:53;11.60;49.70
30288;DHT22;17103;48.316;11.558;2023-11-21T06:43:20;11.60;49.30
30288;DHT22;17103;48.316;11.558;2023-11-21T06:45:47;11.60;49.40
30288;DHT22;17103;48.316;11.558;2023-11-21T06:48:13;11.60;49.60
30288;DHT22;17103;48.316;11.558;2023-11-21T06:50:38;11.50;49.40
30288;DHT22;17103;48.316;11.558;2023-11-21T06:53:04;11.50;49.40
30288;DHT22;17103;48.316;11.558;2023-11-21T06:55:32;11.50;49.60
30288;DHT22;17103;48.316;11.558;2023-11-21T06:58:02;11.50;49.50
30288;DHT22;17103;48.316;11.558;2023-11-21T07:00:28;11.50;49.60
30288;DHT22;17103;48.316;11.558;2023-11-21T07:02:54;11.40;49.40
30288;DHT22;17103;48.316;11.558;2023-11-21T07:05:23;11.40;49.60
30288;DHT22;17103;48.316;11.558;2023-11-21T07:07:49;11.40;49.50
30288;DHT22;17103;48.316;11.558;2023-11-21T07:10:15;11.40;49.60
30288;DHT22;17103;48.316;11.558;2023-11-21T07:12:40;11.30;49.50
30288;DHT22;17103;48.316;11.558;2023-11-21T07:15:06;11.30;49.50
30288;DHT22;17103;48.316;11.558;2023-11-21T07:17:35;11.30;49.40
30288;DHT22;17103;48.316;11.558;2023-11-21T07:20:01;11.30;49.40
30288;DHT22;17103;48.316;11.558;2023-11-21T07:22:26;11.20;49.50
30288;DHT22;17103;48.316;11.558;2023-11-21T07:24:52;11.20;49.40
30288;DHT22;17103;48.316;11.558;2023-11-21T07:27:18;11.20;49.60
30288;DHT22;17103;48.316;11.558;2023-11-21T07:29:44;11.20;49.40
30288;DHT22;17103;48.316;11.558;2023-11-21T07:32:10;11.20;49.90
30288;DHT22;17103;48.316;11.558;2023-11-21T07:34:36;10.50;49.30
30288;DHT22;17103;48.316;11.558;2023-11-21T07:37:02;11.10;49.90
30288;DHT22;17103;48.316;11.558;2023-11-21T07:39:30;10.00;49.20
30288;DHT22;17103;48.316;11.558;2023-11-21T07:41:56;11.10;50.30
30288;DHT22;17103;48.316;11.558;2023-11-21T07:44:23;11.00;50.60
30288;DHT22;17103;48.316;11.558;2023-11-21T07:46:49;11.00;50.50
30288;DHT22;17103;48.316;11.558;2023-11-21T07:49:17;11.00;50.30
30288;DHT22;17103;48.316;11.558;2023-11-21T07:51:45;10.90;50.60
30288;DHT22;17103;48.316;11.558;2023-11-21T07:54:11;11.80;51.20
30288;DHT22;17103;48.316;11.558;2023-11-21T07:56:38;10.90;50.70
30288;DHT22;17103;48.316;11.558;2023-11-21T07:59:03;10.90;50.20
30288;DHT22;17103;48.316;11.558;2023-11-21T08:01:29;11.00;50.30
30288;DHT22;17103;48.316;11.558;2023-11-21T08:03:55;11.00;50.10
30288;DHT22;17103;48.316;11.558;2023-11-21T08:06:24;11.00;50.50
30288;DHT22;17103;48.316;11.558;2023-11-21T08:08:51;11.00;50.30
30288;DHT22;17103;48.316;11.558;2023-11-21T08:11:16;11.00;50.60
30288;DHT22;17103;48.316;11.558;2023-11-21T08:13:42;11.00;50.40
30288;DHT22;17103;48.316;11.558;2023-11-21T08:16:07;11.00;50.20
30288;DHT22;17103;48.316;11.558;2023-11-21T08:18:33;11.00;50.40
30288;DHT22;17103;48.316;11.558;2023-11-21T08:20:59;11.00;50.60
30288;DHT22;17103;48.316;11.558;2023-11-21T08:23:25;11.00;50.60
30288;DHT22;17103;48.316;11.558;2023-11-21T08:25:53;11.00;50.50
30288;DHT22;17103;48.316;11.558;2023-11-21T08:28:19;11.00;50.60
30288;DHT22;17103;48.316;11.558;2023-11-21T08:30:47;11.00;50.70
30288;DHT22;17103;48.316;11.558;2023-11-21T08:33:13;11.00;50.70
30288;DHT22;17103;48.316;11.558;2023-11-21T08:35:39;11.10;50.20
30288;DHT22;17103;48.316;11.558;2023-11-21T08:38:05;11.10;50.60
30288;DHT22;17103;48.316;11.558;2023-11-21T08:40:30;11.10;51.00
30288;DHT22;17103;48.316;11.558;2023-11-21T08:42:56;11.10;50.70
30288;DHT22;17103;48.316;11.558;2023-11-21T08:45:24;11.10;50.80
30288;DHT22;17103;48.316;11.558;2023-11-21T08:47:50;11.10;51.00
30288;DHT22;17103;48.316;11.558;2023-11-21T08:50:16;11.10;51.20
30288;DHT22;17103;48.316;11.558;2023-11-21T08:52:42;11.00;51.40
30288;DHT22;17103;48.316;11.558;2023-11-21T08:55:07;11.10;51.00
30288;DHT22;17103;48.316;11.558;2023-11-21T08:57:34;11.10;51.30
30288;DHT22;17103;48.316;11.558;2023-11-21T09:00:00;11.10;51.50
30288;DHT22;17103;48.316;11.558;2023-11-21T09:02:26;11.10;51.50
30288;DHT22;17103;48.316;11.558;2023-11-21T09:04:52;11.10;51.90
30288;DHT22;17103;48.316;11.558;2023-11-21T09:07:21;11.10;51.90
30288;DHT22;17103;48.316;11.558;2023-11-21T09:09:47;11.10;52.00
30288;DHT22;17103;48.316;11.558;2023-11-21T09:12:13;11.20;52.30
30288;DHT22;17103;48.316;11.558;2023-11-21T09:14:39;11.20;52.70
30288;DHT22;17103;48.316;11.558;2023-11-21T09:17:05;11.20;53.10
30288;DHT22;17103;48.316;11.558;2023-11-21T09:19:39;11.20;52.90
30288;DHT22;17103;48.316;11.558;2023-11-21T09:22:04;11.30;53.00
30288;DHT22;17103;48.316;11.558;2023-11-21T09:24:30;11.30;53.10
30288;DHT22;17103;48.316;11.558;2023-11-21T09:26:56;11.40;53.10
30288;DHT22;17103;48.316;11.558;2023-11-21T09:29:22;11.40;53.40
30288;DHT22;17103;48.316;11.558;2023-11-21T09:31:48;11.50;53.50
30288;DHT22;17103;48.316;11.558;2023-11-21T09:34:15;11.60;53.60
30288;DHT22;17103;48.316;11.558;2023-11-21T09:36:40;11.70;53.40
30288;DHT22;17103;48.316;11.558;2023-11-21T09:39:06;11.80;53.20
30288;DHT22;17103;48.316;11.558;2023-11-21T09:41:38;11.90;53.10
30288;DHT22;17103;48.316;11.558;2023-11-21T09:44:06;12.00;53.40
30288;DHT22;17103;48.316;11.558;2023-11-21T09:46:36;12.20;53.30
30288;DHT22;17103;48.316;11.558;2023-11-21T09:49:04;12.90;52.40
30288;DHT22;17103;48.316;11.558;2023-11-21T09:51:33;12.30;51.50
30288;DHT22;17103;48.316;11.558;2023-11-21T09:54:03;12.30;51.10
30288;DHT22;17103;48.316;11.558;2023-11-21T09:56:34;12.30;51.10
30288;DHT22;17103;48.316;11.558;2023-11-21T09:59:01;12.20;51.10
30288;DHT22;17103;48.316;11.558;2023-11-21T10:01:31;12.20;51.50
30288;DHT22;17103;48.316;11.558;2023-11-21T10:03:58;12.20;51.40
30288;DHT22;17103;48.316;11.558;2023-11-21T10:06:25;12.30;51.80
30288;DHT22;17103;48.316;11.558;2023-11-21T10:08:55;12.30;51.80
30288;DHT22;17103;48.316;11.558;2023-11-21T10:11:23;12.40;52.00
30288;DHT22;17103;48.316;11.558;2023-11-21T10:13:54;12.40;51.90
30288;DHT22;17103;48.316;11.558;2023-11-21T10:16:20;12.40;51.80
30288;DHT22;17103;48.316;11.558;2023-11-21T10:18:48;12.50;51.70
30288;DHT22;17103;48.316;11.558;2023-11-21T10:21:18;12.50;51.80
30288;DHT22;17103;48.316;11.558;2023-11-21T10:23:44;12.60;51.80
30288;DHT22;17103;48.316;11.558;2023-11-21T10:26:10;12.70;52.00
30288;DHT22;17103;48.316;11.558;2023-11-21T10:28:54;12.70;51.60
30288;DHT22;17103;48.316;11.558;2023-11-21T10:31:23;12.70;51.40
30288;DHT22;17103;48.316;11.558;2023-11-21T10:33:50;12.70;51.20
30288;DHT22;17103;48.316;11.558;2023-11-21T10:36:37;12.70;51.20
30288;DHT22;17103;48.316;11.558;2023-11-21T10:39:02;12.70;51.30
30288;DHT22;17103;48.316;11.558;2023-11-21T10:41:28;12.70;51.90
30288;DHT22;17103;48.316;11.558;2023-11-21T10:43:54;12.70;51.30
30288;DHT22;17103;48.316;11.558;2023-11-21T10:46:21;12.80;51.50
30288;DHT22;17103;48.316;11.558;2023-11-21T10:48:55;12.80;51.40
30288;DHT22;17103;48.316;11.558;2023-11-21T10:51:21;12.80;51.20
30288;DHT22;17103;48.316;11.558;2023-11-21T10:53:47;13.00;51.10
30288;DHT22;17103;48.316;11.558;2023-11-21T10:56:16;12.80;51.50
30288;DHT22;17103;48.316;11.558;2023-11-21T10:58:48;12.80;51.00
30288;DHT22;17103;48.316;11.558;2023-11-21T11:01:13;12.90;51.10
30288;DHT22;17103;48.316;11.558;2023-11-21T11:03:42;12.90;51.10
30288;DHT22;17103;48.316;11.558;2023-11-21T11:06:08;12.90;51.00
30288;DHT22;17103;48.316;11.558;2023-11-21T11:08:38;12.90;50.90
30288;DHT22;17103;48.316;11.558;2023-11-21T11:11:06;13.00;51.00
30288;DHT22;17103;48.316;11.558;2023-11-21T11:13:31;13.00;51.10
30288;DHT22;17103;48.316;11.558;2023-11-21T11:16:01;13.00;51.00
30288;DHT22;17103;48.316;11.558;2023-11-21T11:18:30;13.00;50.70
30288;DHT22;17103;48.316;11.558;2023-11-21T11:21:15;13.00;50.50
30288;DHT22;17103;48.316;11.558;2023-11-21T11:24:05;13.00;50.70
30288;DHT22;17103;48.316;11.558;2023-11-21T11:26:40;13.00;50.50
30288;DHT22;17103;48.316;11.558;2023-11-21T11:31:52;13.00;51.00
30288;DHT22;17103;48.316;11.558;2023-11-21T11:36:50;13.10;51.10
30288;DHT22;17103;48.316;11.558;2023-11-21T11:39:30;13.20;51.10
30288;DHT22;17103;48.316;11.558;2023-11-21T11:41:56;13.20;51.20
30288;DHT22;17103;48.316;11.558;2023-11-21T11:47:25;13.30;50.80
30288;DHT22;17103;48.316;11.558;2023-11-21T11:49:56;13.30;50.10
30288;DHT22;17103;48.316;11.558;2023-11-21T11:55:19;13.40;50.30
30288;DHT22;17103;48.316;11.558;2023-11-21T11:57:46;13.40;50.50
30288;DHT22;17103;48.316;11.558;2023-11-21T12:02:42;13.40;50.60
30288;DHT22;17103;48.316;11.558;2023-11-21T12:05:10;13.50;50.80
30288;DHT22;17103;48.316;11.558;2023-11-21T12:07:54;13.50;50.70
30288;DHT22;17103;48.316;11.558;2023-11-21T12:10:21;13.60;50.70
30288;DHT22;17103;48.316;11.558;2023-11-21T12:12:48;13.70;50.70
30288;DHT22;17103;48.316;11.558;2023-11-21T12:15:14;13.70;50.50
30288;DHT22;17103;48.316;11.558;2023-11-21T12:17:43;13.70;50.20
30288;DHT22;17103;48.316;11.558;2023-11-21T12:20:10;13.80;50.20
30288;DHT22;17103;48.316;11.558;2023-11-21T12:22:46;13.80;50.20
30288;DHT22;17103;48.316;11.558;2023-11-21T12:25:15;13.80;50.20
30288;DHT22;17103;48.316;11.558;2023-11-21T12:27:47;13.80;50.20
30288;DHT22;17103;48.316;11.558;2023-11-21T12:30:15;13.90;50.40
30288;DHT22;17103;48.316;11.558;2023-11-21T12:32:41;13.90;50.30
30288;DHT22;17103;48.316;11.558;2023-11-21T12:35:11;14.00;50.10
30288;DHT22;17103;48.316;11.558;2023-11-21T12:37:37;14.00;49.40
30288;DHT22;17103;48.316;11.558;2023-11-21T12:40:05;14.00;48.60
30288;DHT22;17103;48.316;11.558;2023-11-21T12:42:31;14.00;49.20
30288;DHT22;17103;48.316;11.558;2023-11-21T12:47:43;14.00;47.90
30288;DHT22;17103;48.316;11.558;2023-11-21T12:50:10;14.00;48.00
30288;DHT22;17103;48.316;11.558;2023-11-21T12:52:45;14.00;48.70
30288;DHT22;17103;48.316;11.558;2023-11-21T12:55:15;14.00;49.00
30288;DHT22;17103;48.316;11.558;2023-11-21T12:57:42;14.00;49.20
30288;DHT22;17103;48.316;11.558;2023-11-21T13:00:08;13.90;49.40
30288;DHT22;17103;48.316;11.558;2023-11-21T13:02:40;14.00;49.60
30288;DHT22;17103;48.316;11.558;2023-11-21T13:05:07;14.00;49.60
30288;DHT22;17103;48.316;11.558;2023-11-21T13:07:43;14.10;49.80
30288;DHT22;17103;48.316;11.558;2023-11-21T13:10:12;14.10;49.70
30288;DHT22;17103;48.316;11.558;2023-11-21T13:12:45;14.10;49.50
30288;DHT22;17103;48.316;11.558;2023-11-21T13:15:16;14.10;49.40
30288;DHT22;17103;48.316;11.558;2023-11-21T13:17:44;14.10;49.20
30288;DHT22;17103;48.316;11.558;2023-11-21T13:20:14;14.10;48.90
30288;DHT22;17103;48.316;11.558;2023-11-21T13:22:49;14.00;48.70
30288;DHT22;17103;48.316;11.558;2023-11-21T13:25:15;13.90;48.70
30288;DHT22;17103;48.316;11.558;2023-11-21T13:27:43;13.90;48.80
30288;DHT22;17103;48.316;11.558;2023-11-21T13:30:10;13.90;48.90
30288;DHT22;17103;48.316;11.558;2023-11-21T13:32:35;13.80;49.10
30288;DHT22;17103;48.316;11.558;2023-11-21T13:35:01;13.80;49.20
30288;DHT22;17103;48.316;11.558;2023-11-21T13:37:27;13.70;49.20
30288;DHT22;17103;48.316;11.558;2023-11-21T13:39:53;13.70;49.40
30288;DHT22;17103;48.316;11.558;2023-11-21T13:42:20;13.70;49.60
30288;DHT22;17103;48.316;11.558;2023-11-21T13:44:56;13.60;49.50
30288;DHT22;17103;48.316;11.558;2023-11-21T13:47:21;13.60;49.60
30288;DHT22;17103;48.316;11.558;2023-11-21T13:49:50;13.60;49.50
30288;DHT22;17103;48.316;11.558;2023-11-21T13:52:16;13.60;49.50
30288;DHT22;17103;48.316;11.558;2023-11-21T13:54:45;13.60;49.60
30288;DHT22;17103;48.316;11.558;2023-11-21T13:57:11;13.60;49.60
30288;DHT22;17103;48.316;11.558;2023-11-21T13:59:37;13.60;49.70
30288;DHT22;17103;48.316;11.558;2023-11-21T14:02:02;13.60;49.80
30288;DHT22;17103;48.316;11.558;2023-11-21T14:04:43;13.60;49.80
30288;DHT22;17103;48.316;11.558;2023-11-21T14:07:21;13.60;49.90
30288;DHT22;17103;48.316;11.558;2023-11-21T14:10:01;13.60;50.10
30288;DHT22;17103;48.316;11.558;2023-11-21T14:12:27;13.70;50.20
30288;DHT22;17103;48.316;11.558;2023-11-21T14:14:54;13.70;50.20
30288;DHT22;17103;48.316;11.558;2023-11-21T14:17:20;13.70;50.10
30288;DHT22;17103;48.316;11.558;2023-11-21T14:19:49;13.70;50.00
30288;DHT22;17103;48.316;11.558;2023-11-21T14:22:14;13.80;50.10
30288;DHT22;17103;48.316;11.558;2023-11-21T14:24:40;13.70;49.90
30288;DHT22;17103;48.316;11.558;2023-11-21T14:27:12;13.20;49.50
30288;DHT22;17103;48.316;11.558;2023-11-21T14:29:38;13.70;49.90
30288;DHT22;17103;48.316;11.558;2023-11-21T14:32:09;13.70;49.90
30288;DHT22;17103;48.316;11.558;2023-11-21T14:34:34;13.80;50.00
30288;DHT22;17103;48.316;11.558;2023-11-21T14:37:00;13.80;50.00
30288;DHT22;17103;48.316;11.558;2023-11-21T14:39:28;13.80;50.10
30288;DHT22;17103;48.316;11.558;2023-11-21T14:41:55;13.80;50.10
30288;DHT22;17103;48.316;11.558;2023-11-21T14:44:22;13.80;50.00
30288;DHT22;17103;48.316;11.558;2023-11-21T14:46:52;13.80;50.00
30288;DHT22;17103;48.316;11.558;2023-11-21T14:49:20;13.80;50.00
30288;DHT22;17103;48.316;11.558;2023-11-21T14:51:48;13.90;50.00
30288;DHT22;17103;48.316;11.558;2023-11-21T14:54:31;13.90;50.00
30288;DHT22;17103;48.316;11.558;2023-11-21T14:57:11;13.90;50.00
30288;DHT22;17103;48.316;11.558;2023-11-21T14:59:43;13.80;49.80
30288;DHT22;17103;48.316;11.558;2023-11-21T15:02:09;13.80;49.70
30288;DHT22;17103;48.316;11.558;2023-11-21T15:04:41;13.80;49.80
30288;DHT22;17103;48.316;11.558;2023-11-21T15:07:07;13.80;49.70
30288;DHT22;17103;48.316;11.558;2023-11-21T15:09:33;13.80;49.70
30288;DHT22;17103;48.316;11.558;2023-11-21T15:12:00;13.80;49.70
30288;DHT22;17103;48.316;11.558;2023-11-21T15:14:44;13.80;49.70
30288;DHT22;17103;48.316;11.558;2023-11-21T15:17:11;13.80;49.60
30288;DHT22;17103;48.316;11.558;2023-11-21T15:19:41;13.80;49.60
30288;DHT22;17103;48.316;11.558;2023-11-21T15:22:07;13.80;49.60
30288;DHT22;17103;48.316;11.558;2023-11-21T15:24:33;13.70;49.40
30288;DHT22;17103;48.316;11.558;2023-11-21T15:26:59;13.70;49.40
30288;DHT22;17103;48.316;11.558;2023-11-21T15:29:25;13.70;49.50
30288;DHT22;17103;48.316;11.558;2023-11-21T15:31:51;13.70;49.50